createdAt,value
2019-02-07T00:01:25.890Z,2.20
2019-02-07T00:03:52.543Z,2.00
2019-02-07T00:06:19.161Z,2.20
2019-02-07T00:08:45.646Z,2.20
2019-02-07T00:11:12.311Z,2.10
2019-02-07T00:13:39.048Z,2.10
2019-02-07T00:16:05.534Z,2.10
2019-02-07T00:18:32.128Z,2.40
2019-02-07T00:20:58.843Z,2.10
2019-02-07T00:23:25.331Z,2.30
2019-02-07T00:25:51.884Z,2.10
2019-02-07T00:28:18.347Z,2.40
2019-02-07T00:30:45.231Z,2.20
2019-02-07T00:33:11.761Z,2.30
2019-02-07T00:35:38.458Z,2.50
2019-02-07T00:38:04.959Z,2.10
2019-02-07T00:40:31.464Z,2.20
2019-02-07T00:42:57.997Z,2.20
2019-02-07T00:45:24.609Z,2.10
2019-02-07T00:47:51.101Z,2.40
2019-02-07T00:50:17.815Z,2.10
2019-02-07T00:52:44.825Z,1.60
2019-02-07T00:55:13.114Z,2.00
2019-02-07T00:57:39.962Z,1.90
2019-02-07T01:00:13.570Z,2.20
2019-02-07T01:02:40.206Z,2.40
2019-02-07T01:05:08.976Z,2.40
2019-02-07T01:07:35.562Z,2.30
2019-02-07T01:10:05.726Z,2.00
2019-02-07T01:12:32.751Z,2.40
2019-02-07T01:15:02.039Z,2.00
2019-02-07T01:17:27.514Z,2.20
2019-02-07T01:19:54.011Z,2.00
2019-02-07T01:22:20.525Z,2.00
2019-02-07T01:24:47.170Z,2.30
2019-02-07T01:27:13.783Z,2.20
2019-02-07T01:29:40.254Z,2.30
2019-02-07T01:32:07.099Z,2.20
2019-02-07T01:34:33.951Z,2.20
2019-02-07T01:37:00.618Z,2.20
2019-02-07T01:39:27.039Z,2.40
2019-02-07T01:41:53.710Z,2.20
2019-02-07T01:44:20.318Z,1.70
2019-02-07T01:46:46.898Z,2.40
2019-02-07T01:49:13.807Z,2.10
2019-02-07T01:51:40.586Z,2.20
2019-02-07T01:54:07.306Z,2.30
2019-02-07T01:56:34.015Z,2.30
2019-02-07T01:59:00.587Z,2.40
2019-02-07T02:01:27.110Z,2.30
2019-02-07T02:03:53.870Z,2.30
2019-02-07T02:06:20.615Z,2.30
2019-02-07T02:08:47.088Z,2.20
2019-02-07T02:11:13.892Z,1.90
2019-02-07T02:13:40.512Z,2.40
2019-02-07T02:16:07.018Z,2.30
2019-02-07T02:18:33.530Z,2.20
2019-02-07T02:21:00.149Z,2.20
2019-02-07T02:23:26.697Z,2.30
2019-02-07T02:25:53.466Z,2.20
2019-02-07T02:28:19.963Z,2.10
2019-02-07T02:30:46.602Z,2.30
2019-02-07T02:33:13.278Z,2.00
2019-02-07T02:35:39.996Z,1.80
2019-02-07T02:38:06.488Z,2.40
2019-02-07T02:40:33.178Z,2.50
2019-02-07T02:42:59.951Z,2.40
2019-02-07T02:45:37.187Z,2.20
2019-02-07T02:47:55.356Z,2.30
2019-02-07T02:50:22.129Z,2.30
2019-02-07T02:52:48.877Z,2.00
2019-02-07T02:55:29.189Z,2.40
2019-02-07T02:57:55.830Z,2.30
2019-02-07T03:00:24.253Z,2.30
2019-02-07T03:03:01.644Z,2.40
2019-02-07T03:05:32.859Z,2.20
2019-02-07T03:08:01.389Z,2.30
2019-02-07T03:10:32.710Z,2.00
2019-02-07T03:13:17.847Z,2.50
2019-02-07T03:16:04.107Z,2.30
2019-02-07T03:18:32.606Z,2.30
2019-02-07T03:21:06.710Z,2.40
2019-02-07T03:23:53.374Z,2.40
2019-02-07T03:26:27.653Z,2.40
2019-02-07T03:29:12.597Z,2.10
2019-02-07T03:31:57.248Z,2.40
2019-02-07T03:34:37.594Z,2.50
2019-02-07T03:37:09.626Z,2.00
2019-02-07T03:39:53.181Z,2.10
2019-02-07T03:42:27.211Z,2.20
2019-02-07T03:44:55.718Z,2.30
2019-02-07T03:47:24.136Z,2.30
2019-02-07T03:50:04.690Z,1.90
2019-02-07T03:52:49.257Z,2.20
2019-02-07T03:55:27.070Z,1.80
2019-02-07T03:58:11.888Z,2.40
2019-02-07T04:00:49.020Z,2.20
2019-02-07T04:03:23.284Z,2.20
2019-02-07T04:05:57.575Z,2.40
2019-02-07T04:08:42.268Z,2.30
2019-02-07T04:11:10.770Z,2.40
2019-02-07T04:13:51.111Z,2.40
2019-02-07T04:16:20.035Z,2.40
2019-02-07T04:18:48.458Z,2.20
2019-02-07T04:21:22.716Z,2.10
2019-02-07T04:23:51.153Z,2.40
2019-02-07T04:26:37.571Z,2.10
2019-02-07T04:29:11.922Z,2.10
2019-02-07T04:31:40.417Z,2.30
2019-02-07T04:34:08.783Z,2.30
2019-02-07T04:36:37.139Z,2.30
2019-02-07T04:39:08.186Z,2.00
2019-02-07T04:41:45.608Z,1.90
2019-02-07T04:44:25.807Z,2.20
2019-02-07T04:47:08.931Z,2.30
2019-02-07T04:49:54.157Z,2.50
2019-02-07T04:52:31.410Z,2.40
2019-02-07T04:55:05.427Z,2.10
2019-02-07T04:57:50.029Z,2.20
2019-02-07T05:00:21.117Z,2.40
2019-02-07T05:02:55.266Z,2.40
2019-02-07T05:05:26.285Z,2.40
2019-02-07T05:07:57.283Z,2.30
2019-02-07T05:10:42.004Z,2.50
2019-02-07T05:13:19.240Z,2.30
2019-02-07T05:16:04.013Z,2.50
2019-02-07T05:18:48.864Z,2.20
2019-02-07T05:21:33.662Z,2.30
2019-02-07T05:24:04.924Z,2.30
2019-02-07T05:26:35.802Z,2.30
2019-02-07T05:29:04.282Z,2.40
2019-02-07T05:31:47.496Z,2.40
2019-02-07T05:34:30.758Z,2.40
2019-02-07T05:37:05.070Z,2.20
2019-02-07T05:39:49.946Z,2.20
2019-02-07T05:42:22.737Z,2.40
2019-02-07T05:44:51.328Z,2.40
2019-02-07T05:47:37.928Z,2.20
2019-02-07T05:50:09.711Z,2.30
2019-02-07T05:52:54.674Z,2.40
2019-02-07T05:55:39.406Z,2.40
2019-02-07T05:58:23.960Z,2.20
2019-02-07T06:00:52.598Z,2.40
2019-02-07T06:03:24.134Z,2.30
2019-02-07T06:06:01.123Z,2.20
2019-02-07T06:08:32.267Z,2.40
2019-02-07T06:11:00.647Z,2.20
2019-02-07T06:13:47.139Z,2.10
2019-02-07T06:16:33.405Z,2.40
2019-02-07T06:19:04.362Z,2.20
2019-02-07T06:21:36.038Z,2.30
2019-02-07T06:24:13.035Z,2.40
2019-02-07T06:26:50.031Z,2.40
2019-02-07T06:29:24.154Z,2.50
2019-02-07T06:31:55.562Z,2.40
2019-02-07T06:34:40.277Z,2.30
2019-02-07T06:37:20.513Z,2.40
2019-02-07T06:40:01.157Z,2.40
2019-02-07T06:42:32.171Z,2.40
2019-02-07T06:45:06.093Z,1.70
2019-02-07T06:47:33.661Z,2.60
2019-02-07T06:50:11.043Z,2.60
2019-02-07T06:52:39.402Z,2.60
2019-02-07T06:55:25.458Z,2.60
2019-02-07T06:58:08.790Z,2.60
2019-02-07T07:00:40.233Z,2.60
2019-02-07T07:03:24.813Z,2.50
2019-02-07T07:06:07.969Z,2.80
2019-02-07T07:08:52.917Z,2.50
2019-02-07T07:11:21.453Z,2.40
2019-02-07T07:13:52.632Z,2.60
2019-02-07T07:16:26.993Z,2.50
2019-02-07T07:19:01.396Z,2.70
2019-02-07T07:21:29.968Z,2.70
2019-02-07T07:23:58.367Z,2.50
2019-02-07T07:26:29.574Z,2.90
2019-02-07T07:29:14.062Z,2.60
2019-02-07T07:31:42.413Z,2.10
2019-02-07T07:34:10.934Z,2.60
2019-02-07T07:36:48.146Z,2.60
2019-02-07T07:39:28.226Z,2.80
2019-02-07T07:42:12.831Z,2.70
2019-02-07T07:44:43.911Z,2.80
2019-02-07T07:47:36.099Z,2.60
2019-02-07T07:50:08.813Z,2.80
2019-02-07T07:52:43.382Z,2.80
2019-02-07T07:55:26.629Z,2.20
2019-02-07T07:57:55.220Z,2.80
2019-02-07T08:00:32.337Z,2.80
2019-02-07T08:03:03.484Z,2.90
2019-02-07T08:05:32.066Z,2.80
2019-02-07T08:08:16.838Z,2.60
2019-02-07T08:10:47.881Z,2.70
2019-02-07T08:13:16.226Z,2.70
2019-02-07T08:15:53.337Z,2.80
2019-02-07T08:18:27.485Z,2.80
2019-02-07T08:21:04.742Z,2.70
2019-02-07T08:23:35.958Z,2.80
2019-02-07T08:26:07.340Z,2.80
2019-02-07T08:28:35.719Z,2.80
2019-02-07T08:31:04.886Z,2.60
2019-02-07T08:33:39.458Z,2.60
2019-02-07T08:36:07.847Z,2.60
2019-02-07T08:38:42.266Z,2.80
2019-02-07T08:41:27.201Z,2.50
2019-02-07T08:43:55.831Z,2.50
2019-02-07T08:46:40.437Z,2.60
2019-02-07T08:49:14.458Z,2.60
2019-02-07T08:51:52.145Z,2.80
2019-02-07T08:54:26.114Z,2.60
2019-02-07T08:57:10.933Z,2.40
2019-02-07T08:59:39.518Z,2.80
2019-02-07T09:02:13.592Z,2.90
2019-02-07T09:04:51.144Z,2.90
2019-02-07T09:07:19.577Z,2.80
2019-02-07T09:09:53.954Z,2.60
2019-02-07T09:12:28.209Z,2.70
2019-02-07T09:15:02.299Z,2.60
2019-02-07T09:17:30.715Z,2.80
2019-02-07T09:20:14.099Z,2.60
2019-02-07T09:22:54.786Z,2.80
2019-02-07T09:25:25.862Z,2.60
2019-02-07T09:27:57.306Z,2.60
2019-02-07T09:30:28.547Z,2.70
2019-02-07T09:32:59.458Z,2.30
2019-02-07T09:35:30.514Z,2.80
2019-02-07T09:38:14.074Z,2.80
2019-02-07T09:40:58.551Z,2.80
2019-02-07T09:43:35.594Z,2.70
2019-02-07T09:46:03.971Z,2.70
2019-02-07T09:48:32.386Z,2.70
2019-02-07T09:51:06.515Z,2.30
2019-02-07T09:53:47.086Z,2.80
2019-02-07T09:56:30.127Z,3.00
2019-02-07T09:58:58.515Z,2.90
2019-02-07T10:01:29.674Z,2.90
2019-02-07T10:04:03.835Z,2.80
2019-02-07T10:06:38.126Z,2.90
2019-02-07T10:09:09.639Z,2.90
2019-02-07T10:11:43.935Z,2.80
2019-02-07T10:14:30.298Z,2.90
2019-02-07T10:16:58.736Z,3.10
2019-02-07T10:19:43.378Z,2.80
2019-02-07T10:22:20.689Z,2.80
2019-02-07T10:24:54.718Z,2.80
2019-02-07T10:27:23.154Z,2.70
2019-02-07T10:29:51.603Z,2.70
2019-02-07T10:32:22.563Z,2.70
2019-02-07T10:35:05.586Z,2.60
2019-02-07T10:37:37.146Z,2.40
2019-02-07T10:40:14.942Z,2.60
2019-02-07T10:42:46.218Z,2.60
2019-02-07T10:45:20.816Z,2.60
2019-02-07T10:47:51.921Z,2.60
2019-02-07T10:50:22.913Z,2.70
2019-02-07T10:52:54.182Z,2.80
2019-02-07T10:55:25.695Z,2.70
2019-02-07T10:58:12.958Z,2.70
2019-02-07T11:00:50.222Z,2.60
2019-02-07T11:03:36.574Z,2.60
2019-02-07T11:06:23.178Z,2.70
2019-02-07T11:08:54.450Z,3.00
2019-02-07T11:11:22.842Z,2.90
2019-02-07T11:13:51.186Z,2.80
2019-02-07T11:16:22.419Z,2.80
2019-02-07T11:19:00.706Z,2.80
2019-02-07T11:21:29.366Z,2.60
2019-02-07T11:24:12.401Z,2.70
2019-02-07T11:26:49.068Z,2.60
2019-02-07T11:29:29.293Z,2.60
2019-02-07T11:31:57.838Z,2.70
2019-02-07T11:34:45.948Z,2.90
2019-02-07T11:37:32.285Z,2.80
2019-02-07T11:40:12.700Z,2.80
2019-02-07T11:42:44.790Z,3.00
2019-02-07T11:45:29.090Z,2.80
2019-02-07T11:48:00.143Z,3.00
2019-02-07T11:50:44.856Z,3.00
2019-02-07T11:53:13.747Z,2.90
2019-02-07T11:55:42.102Z,3.10
2019-02-07T11:58:19.404Z,3.20
2019-02-07T12:01:04.158Z,3.00
2019-02-07T12:03:45.110Z,3.10
2019-02-07T12:06:28.534Z,2.80
2019-02-07T12:09:00.045Z,2.70
2019-02-07T12:11:44.858Z,2.80
2019-02-07T12:14:31.693Z,2.40
2019-02-07T12:17:00.042Z,3.00
2019-02-07T12:19:44.970Z,2.80
2019-02-07T12:22:13.361Z,2.50
2019-02-07T12:24:58.730Z,2.80
2019-02-07T12:27:27.382Z,2.70
2019-02-07T12:29:58.618Z,3.00
2019-02-07T12:32:29.752Z,3.00
2019-02-07T12:34:58.097Z,2.90
2019-02-07T12:37:35.219Z,3.00
2019-02-07T12:40:21.270Z,2.70
2019-02-07T12:42:49.787Z,2.70
2019-02-07T12:45:18.539Z,2.90
2019-02-07T12:48:07.964Z,2.90
2019-02-07T12:50:36.424Z,2.90
2019-02-07T12:53:14.246Z,3.20
2019-02-07T12:55:52.657Z,3.00
2019-02-07T12:58:24.754Z,3.30
2019-02-07T13:00:54.210Z,3.20
2019-02-07T13:03:39.278Z,2.60
2019-02-07T13:06:10.167Z,3.00
2019-02-07T13:08:41.218Z,3.00
2019-02-07T13:11:12.197Z,3.00
2019-02-07T13:13:55.750Z,2.70
2019-02-07T13:16:26.706Z,3.00
2019-02-07T13:19:03.921Z,3.00
2019-02-07T13:21:35.042Z,3.00
2019-02-07T13:24:09.661Z,3.10
2019-02-07T13:26:38.054Z,3.20
2019-02-07T13:29:06.794Z,3.10
2019-02-07T13:31:41.270Z,3.20
2019-02-07T13:34:12.225Z,3.00
2019-02-07T13:36:40.606Z,2.90
2019-02-07T13:39:15.046Z,2.80
2019-02-07T13:41:45.978Z,2.80
2019-02-07T13:44:30.967Z,2.70
2019-02-07T13:46:59.334Z,2.60
2019-02-07T13:49:27.713Z,3.00
2019-02-07T13:52:12.341Z,2.80
2019-02-07T13:54:46.538Z,2.80
2019-02-07T13:57:20.649Z,2.70
2019-02-07T13:59:51.806Z,2.60
2019-02-07T14:02:20.159Z,2.70
2019-02-07T14:04:48.642Z,2.70
2019-02-07T14:07:19.785Z,2.60
2019-02-07T14:10:04.744Z,2.80
2019-02-07T14:12:42.340Z,2.60
2019-02-07T14:15:17.229Z,2.80
2019-02-07T14:17:48.398Z,2.70
2019-02-07T14:20:22.643Z,2.60
2019-02-07T14:22:51.055Z,2.60
2019-02-07T14:25:21.938Z,2.80
2019-02-07T14:27:50.793Z,2.60
2019-02-07T14:30:28.098Z,2.70
2019-02-07T14:33:05.551Z,2.70
2019-02-07T14:35:33.894Z,2.80
2019-02-07T14:38:11.294Z,2.60
2019-02-07T14:40:39.650Z,2.80
2019-02-07T14:43:17.169Z,2.60
2019-02-07T14:45:45.566Z,2.80
2019-02-07T14:48:24.938Z,2.70
2019-02-07T14:50:52.282Z,2.90
2019-02-07T14:53:18.802Z,2.80
2019-02-07T14:55:45.594Z,2.60
2019-02-07T14:58:12.109Z,2.70
2019-02-07T15:00:38.563Z,2.70
2019-02-07T15:03:05.533Z,2.70
2019-02-07T15:05:32.020Z,2.60
2019-02-07T15:07:58.770Z,2.70
2019-02-07T15:10:25.390Z,2.80
2019-02-07T15:12:51.851Z,2.60
2019-02-07T15:15:21.697Z,2.80
2019-02-07T15:17:48.266Z,2.70
2019-02-07T15:20:25.496Z,2.80
2019-02-07T15:22:43.334Z,2.70
2019-02-07T15:25:13.083Z,2.90
2019-02-07T15:27:39.729Z,2.70
2019-02-07T15:30:12.605Z,2.80
2019-02-07T15:32:39.122Z,2.70
2019-02-07T15:35:18.144Z,2.90
2019-02-07T15:37:44.788Z,2.80
2019-02-07T15:40:15.161Z,2.90
2019-02-07T15:42:41.629Z,2.90
2019-02-07T15:45:11.178Z,2.90
2019-02-07T15:47:37.782Z,2.90
2019-02-07T15:50:10.806Z,3.00
2019-02-07T15:52:37.436Z,3.20
2019-02-07T15:55:04.588Z,3.10
2019-02-07T15:57:34.370Z,2.90
2019-02-07T16:00:02.029Z,3.00
2019-02-07T16:02:28.683Z,3.10
2019-02-07T16:04:55.646Z,3.10
2019-02-07T16:07:22.151Z,2.90
2019-02-07T16:09:48.752Z,2.80
2019-02-07T16:12:15.241Z,3.00
2019-02-07T16:14:42.313Z,2.90
2019-02-07T16:17:08.746Z,2.70
2019-02-07T16:19:35.214Z,3.00
2019-02-07T16:22:02.038Z,2.90
2019-02-07T16:24:28.738Z,2.90
2019-02-07T16:26:55.238Z,3.00
2019-02-07T16:29:21.914Z,2.90
2019-02-07T16:31:48.370Z,3.00
2019-02-07T16:34:14.948Z,3.00
2019-02-07T16:36:41.847Z,2.90
2019-02-07T16:39:08.755Z,2.90
2019-02-07T16:41:35.263Z,3.00
2019-02-07T16:44:04.294Z,3.00
2019-02-07T16:46:30.767Z,3.10
2019-02-07T16:48:57.286Z,2.90
2019-02-07T16:51:25.465Z,2.90
2019-02-07T16:53:52.077Z,2.80
2019-02-07T16:56:18.647Z,2.90
2019-02-07T16:58:45.183Z,2.70
2019-02-07T17:01:11.859Z,2.40
2019-02-07T17:03:38.679Z,2.80
2019-02-07T17:06:06.221Z,3.00
2019-02-07T17:08:32.666Z,2.90
2019-02-07T17:10:59.359Z,2.80
2019-02-07T17:13:25.902Z,3.00
2019-02-07T17:15:52.382Z,2.90
2019-02-07T17:18:19.022Z,3.00
2019-02-07T17:20:45.726Z,2.90
2019-02-07T17:23:12.309Z,3.00
2019-02-07T17:25:41.993Z,3.10
2019-02-07T17:28:11.830Z,2.80
2019-02-07T17:30:38.414Z,2.80
2019-02-07T17:33:04.900Z,2.80
2019-02-07T17:35:31.618Z,2.70
2019-02-07T17:37:58.110Z,2.70
2019-02-07T17:40:25.389Z,2.70
2019-02-07T17:42:52.094Z,3.00
2019-02-07T17:45:25.967Z,2.80
2019-02-07T17:47:52.893Z,2.70
2019-02-07T17:50:21.318Z,2.70
2019-02-07T17:52:50.282Z,2.70
2019-02-07T17:55:18.855Z,2.80
2019-02-07T17:57:45.362Z,2.80
2019-02-07T18:00:20.372Z,3.00
2019-02-07T18:02:46.939Z,2.90
2019-02-07T18:05:13.410Z,2.80
2019-02-07T18:07:40.055Z,3.00
2019-02-07T18:10:09.822Z,3.00
2019-02-07T18:12:36.389Z,2.90
2019-02-07T18:15:05.238Z,2.80
2019-02-07T18:17:31.744Z,2.80
2019-02-07T18:19:58.647Z,2.80
2019-02-07T18:22:25.346Z,2.90
2019-02-07T18:24:52.009Z,2.80
2019-02-07T18:27:20.270Z,3.10
2019-02-07T18:29:47.154Z,2.90
2019-02-07T18:32:13.782Z,2.90
2019-02-07T18:34:40.267Z,3.00
2019-02-07T18:37:07.026Z,3.00
2019-02-07T18:39:33.924Z,3.00
2019-02-07T18:42:00.482Z,2.80
2019-02-07T18:44:30.316Z,2.90
2019-02-07T18:46:56.827Z,2.30
2019-02-07T18:49:23.326Z,2.70
2019-02-07T18:51:50.227Z,2.90
2019-02-07T18:54:16.745Z,2.80
2019-02-07T18:56:43.279Z,2.90
2019-02-07T18:59:10.250Z,2.90
2019-02-07T19:01:36.763Z,2.80
2019-02-07T19:04:04.050Z,3.00
2019-02-07T19:06:30.789Z,2.80
2019-02-07T19:08:57.392Z,3.00
2019-02-07T19:11:23.852Z,2.80
2019-02-07T19:13:50.510Z,2.80
2019-02-07T19:16:16.972Z,2.80
2019-02-07T19:18:43.882Z,3.10
2019-02-07T19:21:10.652Z,2.70
2019-02-07T19:23:37.122Z,2.80
2019-02-07T19:26:03.681Z,2.70
2019-02-07T19:28:30.566Z,2.80
2019-02-07T19:30:57.413Z,2.80
2019-02-07T19:33:23.830Z,3.10
2019-02-07T19:35:50.710Z,2.90
2019-02-07T19:38:17.509Z,2.80
2019-02-07T19:40:43.973Z,3.10
2019-02-07T19:43:10.556Z,2.90
2019-02-07T19:45:37.174Z,2.80
2019-02-07T19:48:03.970Z,3.00
2019-02-07T19:50:30.580Z,2.90
2019-02-07T19:52:59.202Z,2.80
2019-02-07T19:55:32.371Z,2.80
2019-02-07T19:57:59.046Z,2.90
2019-02-07T20:00:27.529Z,3.00
2019-02-07T20:02:54.597Z,3.10
2019-02-07T20:05:21.360Z,3.20
2019-02-07T20:07:48.766Z,3.00
2019-02-07T20:10:18.930Z,3.00
2019-02-07T20:12:45.702Z,2.90
2019-02-07T20:15:27.486Z,3.20
2019-02-07T20:17:54.218Z,3.20
2019-02-07T20:20:20.953Z,3.00
2019-02-07T20:22:50.711Z,2.60
2019-02-07T20:25:18.415Z,2.80
2019-02-07T20:27:44.906Z,3.00
2019-02-07T20:30:17.638Z,3.00
2019-02-07T20:32:44.154Z,2.90
2019-02-07T20:35:11.399Z,3.10
2019-02-07T20:37:37.983Z,3.20
2019-02-07T20:40:08.318Z,3.10
2019-02-07T20:42:34.821Z,3.10
2019-02-07T20:45:01.416Z,3.00
2019-02-07T20:47:28.252Z,3.00
2019-02-07T20:49:55.120Z,3.00
2019-02-07T20:52:27.182Z,3.00
2019-02-07T20:54:55.716Z,3.00
2019-02-07T20:57:25.653Z,3.00
2019-02-07T20:59:52.311Z,3.00
2019-02-07T21:02:18.771Z,3.10
2019-02-07T21:04:45.347Z,3.00
2019-02-07T21:07:11.870Z,3.10
2019-02-07T21:09:38.686Z,3.10
2019-02-07T21:12:05.352Z,3.10
2019-02-07T21:14:31.806Z,3.20
2019-02-07T21:16:58.311Z,2.70
2019-02-07T21:19:25.014Z,3.10
2019-02-07T21:21:51.688Z,2.80
2019-02-07T21:24:18.104Z,3.10
2019-02-07T21:26:44.890Z,3.20
2019-02-07T21:29:11.411Z,3.10
2019-02-07T21:31:38.157Z,3.30
2019-02-07T21:34:04.945Z,3.00
2019-02-07T21:36:31.497Z,2.70
2019-02-07T21:38:58.331Z,2.70
2019-02-07T21:41:24.952Z,2.80
2019-02-07T21:43:52.062Z,3.20
2019-02-07T21:46:18.678Z,3.00
2019-02-07T21:48:45.334Z,3.30
2019-02-07T21:51:11.890Z,3.00
2019-02-07T21:53:38.935Z,3.00
2019-02-07T21:56:05.734Z,2.90
2019-02-07T21:58:32.602Z,3.00
2019-02-07T22:00:59.435Z,2.90
2019-02-07T22:03:26.320Z,2.90
2019-02-07T22:05:53.481Z,2.80
2019-02-07T22:08:20.792Z,3.00
2019-02-07T22:10:47.550Z,2.80
2019-02-07T22:13:13.991Z,3.10
2019-02-07T22:15:40.478Z,2.80
2019-02-07T22:18:07.642Z,2.90
2019-02-07T22:20:34.157Z,2.80
2019-02-07T22:23:01.620Z,2.80
2019-02-07T22:25:29.559Z,2.60
2019-02-07T22:27:56.018Z,2.80
2019-02-07T22:30:31.336Z,2.70
2019-02-07T22:32:58.048Z,2.40
2019-02-07T22:35:24.534Z,2.20
2019-02-07T22:37:51.129Z,2.70
2019-02-07T22:40:22.625Z,2.80
2019-02-07T22:42:49.317Z,2.70
2019-02-07T22:45:17.503Z,2.90
2019-02-07T22:47:45.019Z,2.60
2019-02-07T22:50:25.674Z,2.70
2019-02-07T22:52:57.092Z,2.70
2019-02-07T22:55:32.457Z,2.70
2019-02-07T22:57:59.483Z,2.70
2019-02-07T23:00:40.694Z,2.70
2019-02-07T23:03:15.979Z,2.80
2019-02-07T23:05:42.826Z,2.70
2019-02-07T23:08:10.561Z,2.80
2019-02-07T23:10:37.107Z,2.60
2019-02-07T23:13:04.904Z,2.30
2019-02-07T23:15:31.792Z,2.60
2019-02-07T23:17:58.661Z,2.70
2019-02-07T23:20:25.242Z,2.80
2019-02-07T23:22:51.743Z,2.60
2019-02-07T23:25:18.659Z,2.60
2019-02-07T23:27:45.294Z,2.70
2019-02-07T23:30:19.224Z,2.60
2019-02-07T23:32:49.129Z,2.40
2019-02-07T23:35:16.543Z,2.50
2019-02-07T23:37:43.139Z,2.60
2019-02-07T23:40:18.239Z,2.40
2019-02-07T23:42:44.744Z,2.40
2019-02-07T23:45:15.185Z,2.50
2019-02-07T23:47:41.850Z,2.50
2019-02-07T23:50:10.342Z,2.60
2019-02-07T23:52:37.189Z,2.40
2019-02-07T23:55:06.548Z,2.50
2019-02-07T23:57:32.982Z,2.50
2019-02-07T23:59:59.441Z,2.70
